createdAt,value
2018-05-10T00:00:04.108Z,10.57
2018-05-10T00:00:37.995Z,11.10
2018-05-10T00:01:12.130Z,10.43
2018-05-10T00:01:45.987Z,10.00
2018-05-10T00:02:19.896Z,9.40
2018-05-10T00:02:53.830Z,10.57
2018-05-10T00:03:27.696Z,10.70
2018-05-10T00:04:01.563Z,11.02
2018-05-10T00:04:35.624Z,10.88
2018-05-10T00:05:10.221Z,10.85
2018-05-10T00:05:44.214Z,10.75
2018-05-10T00:06:18.079Z,11.25
2018-05-10T00:06:51.954Z,12.52
2018-05-10T00:07:25.897Z,11.40
2018-05-10T00:07:59.856Z,10.50
2018-05-10T00:08:33.743Z,10.23
2018-05-10T00:09:07.818Z,11.23
2018-05-10T00:09:41.725Z,11.00
2018-05-10T00:10:15.628Z,10.93
2018-05-10T00:10:49.553Z,10.93
2018-05-10T00:11:23.436Z,11.65
2018-05-10T00:11:57.308Z,10.30
2018-05-10T00:12:31.156Z,12.23
2018-05-10T00:13:05.027Z,11.95
2018-05-10T00:13:38.938Z,12.10
2018-05-10T00:14:12.840Z,10.50
2018-05-10T00:14:46.886Z,11.73
2018-05-10T00:15:20.751Z,12.40
2018-05-10T00:15:54.632Z,12.23
2018-05-10T00:16:28.543Z,12.52
2018-05-10T00:17:02.412Z,11.65
2018-05-10T00:17:36.280Z,11.70
2018-05-10T00:18:10.155Z,11.88
2018-05-10T00:18:44.063Z,10.60
2018-05-10T00:19:17.927Z,11.68
2018-05-10T00:19:51.782Z,11.73
2018-05-10T00:20:25.639Z,9.82
2018-05-10T00:20:59.533Z,10.50
2018-05-10T00:21:33.395Z,10.93
2018-05-10T00:22:07.605Z,10.10
2018-05-10T00:22:41.461Z,11.65
2018-05-10T00:23:15.564Z,10.48
2018-05-10T00:23:49.435Z,11.43
2018-05-10T00:24:23.327Z,10.70
2018-05-10T00:24:57.221Z,10.60
2018-05-10T00:25:31.112Z,11.05
2018-05-10T00:26:04.995Z,10.45
2018-05-10T00:26:38.849Z,11.30
2018-05-10T00:27:12.715Z,10.20
2018-05-10T00:27:46.580Z,10.90
2018-05-10T00:28:20.462Z,10.13
2018-05-10T00:28:54.624Z,10.70
2018-05-10T00:29:28.504Z,11.10
2018-05-10T00:30:02.378Z,10.48
2018-05-10T00:30:36.260Z,9.80
2018-05-10T00:31:10.134Z,10.65
2018-05-10T00:31:44.074Z,10.02
2018-05-10T00:32:17.940Z,10.15
2018-05-10T00:32:51.797Z,9.43
2018-05-10T00:33:25.659Z,10.10
2018-05-10T00:33:59.557Z,10.75
2018-05-10T00:34:33.435Z,11.15
2018-05-10T00:35:07.480Z,10.57
2018-05-10T00:35:41.351Z,10.40
2018-05-10T00:36:15.403Z,10.43
2018-05-10T00:36:49.299Z,10.55
2018-05-10T00:37:23.254Z,10.10
2018-05-10T00:37:57.111Z,10.07
2018-05-10T00:38:30.988Z,11.00
2018-05-10T00:39:04.857Z,10.52
2018-05-10T00:39:38.734Z,10.35
2018-05-10T00:40:12.587Z,10.07
2018-05-10T00:40:46.456Z,11.38
2018-05-10T00:41:20.363Z,10.05
2018-05-10T00:41:54.228Z,10.73
2018-05-10T00:42:28.090Z,9.80
2018-05-10T00:43:01.962Z,9.93
2018-05-10T00:43:35.846Z,10.02
2018-05-10T00:44:09.725Z,9.95
2018-05-10T00:44:43.585Z,10.57
2018-05-10T00:45:17.464Z,10.48
2018-05-10T00:45:51.328Z,10.30
2018-05-10T00:46:25.210Z,10.43
2018-05-10T00:46:59.090Z,10.13
2018-05-10T00:47:32.978Z,10.65
2018-05-10T00:48:06.842Z,10.38
2018-05-10T00:48:40.708Z,10.80
2018-05-10T00:49:14.583Z,10.75
2018-05-10T00:49:48.772Z,10.05
2018-05-10T00:50:22.639Z,10.10
2018-05-10T00:50:56.660Z,9.55
2018-05-10T00:51:30.559Z,9.57
2018-05-10T00:52:04.428Z,10.13
2018-05-10T00:52:38.303Z,10.48
2018-05-10T00:53:12.463Z,9.90
2018-05-10T00:53:46.337Z,10.43
2018-05-10T00:54:40.925Z,9.18
2018-05-10T00:55:14.810Z,9.30
2018-05-10T00:55:48.683Z,9.65
2018-05-10T00:56:22.560Z,9.88
2018-05-10T00:56:56.457Z,9.57
2018-05-10T00:57:30.316Z,9.70
2018-05-10T00:58:04.203Z,10.93
2018-05-10T00:58:38.066Z,9.68
2018-05-10T00:59:11.961Z,10.20
2018-05-10T00:59:45.825Z,9.70
2018-05-10T01:00:19.713Z,9.32
2018-05-10T01:00:53.623Z,10.25
2018-05-10T01:01:27.481Z,9.70
2018-05-10T01:02:01.370Z,9.75
2018-05-10T01:02:35.247Z,10.13
2018-05-10T01:03:09.113Z,10.10
2018-05-10T01:03:43.040Z,10.50
2018-05-10T01:04:16.865Z,9.90
2018-05-10T01:04:50.808Z,9.57
2018-05-10T01:05:24.621Z,9.85
2018-05-10T01:05:58.637Z,9.45
2018-05-10T01:06:32.724Z,10.82
2018-05-10T01:07:06.604Z,10.38
2018-05-10T01:07:40.493Z,10.07
2018-05-10T01:08:14.358Z,10.88
2018-05-10T01:08:48.213Z,10.55
2018-05-10T01:09:22.092Z,11.20
2018-05-10T01:09:55.964Z,10.82
2018-05-10T01:10:29.816Z,9.35
2018-05-10T01:11:03.803Z,10.18
2018-05-10T01:11:37.698Z,10.25
2018-05-10T01:12:11.597Z,10.18
2018-05-10T01:12:45.476Z,10.45
2018-05-10T01:13:19.355Z,10.35
2018-05-10T01:13:53.252Z,9.88
2018-05-10T01:14:27.208Z,9.52
2018-05-10T01:15:01.076Z,9.85
2018-05-10T01:15:34.935Z,9.90
2018-05-10T01:16:08.827Z,9.90
2018-05-10T01:16:42.685Z,10.13
2018-05-10T01:17:16.563Z,10.05
2018-05-10T01:17:50.611Z,10.02
2018-05-10T01:18:24.483Z,9.57
2018-05-10T01:18:58.365Z,9.50
2018-05-10T01:19:32.300Z,9.40
2018-05-10T01:20:06.224Z,10.40
2018-05-10T01:20:40.096Z,9.75
2018-05-10T01:21:13.973Z,10.40
2018-05-10T01:21:47.847Z,10.02
2018-05-10T01:22:21.734Z,10.20
2018-05-10T01:22:55.663Z,11.07
2018-05-10T01:23:29.520Z,10.45
2018-05-10T01:24:03.693Z,9.98
2018-05-10T01:24:37.744Z,10.02
2018-05-10T01:25:11.560Z,10.10
2018-05-10T01:25:45.428Z,9.65
2018-05-10T01:26:19.349Z,10.15
2018-05-10T01:26:53.448Z,9.82
2018-05-10T01:27:27.327Z,9.32
2018-05-10T01:28:01.272Z,10.40
2018-05-10T01:28:35.139Z,10.38
2018-05-10T01:29:09.064Z,9.48
2018-05-10T01:29:43.129Z,9.77
2018-05-10T01:30:17.005Z,10.70
2018-05-10T01:30:50.884Z,10.30
2018-05-10T01:31:24.760Z,11.05
2018-05-10T01:31:58.639Z,10.10
2018-05-10T01:32:32.535Z,10.45
2018-05-10T01:33:06.401Z,10.73
2018-05-10T01:33:40.415Z,10.52
2018-05-10T01:34:14.393Z,10.80
2018-05-10T01:34:54.276Z,10.38
2018-05-10T01:35:33.898Z,10.10
2018-05-10T01:36:13.376Z,10.80
2018-05-10T01:36:47.231Z,10.55
2018-05-10T01:37:21.088Z,9.85
2018-05-10T01:37:54.967Z,9.57
2018-05-10T01:38:29.089Z,10.85
2018-05-10T01:39:02.959Z,10.85
2018-05-10T01:39:36.828Z,10.77
2018-05-10T01:40:10.855Z,10.57
2018-05-10T01:40:44.718Z,10.48
2018-05-10T01:41:18.577Z,11.75
2018-05-10T01:41:52.457Z,10.93
2018-05-10T01:42:26.345Z,9.98
2018-05-10T01:43:00.271Z,9.80
2018-05-10T01:43:34.133Z,10.88
2018-05-10T01:44:08.038Z,10.50
2018-05-10T01:44:41.919Z,9.43
2018-05-10T01:45:15.828Z,9.90
2018-05-10T01:45:49.695Z,10.35
2018-05-10T01:46:23.568Z,10.05
2018-05-10T01:46:57.426Z,9.93
2018-05-10T01:47:31.296Z,10.32
2018-05-10T01:48:05.199Z,10.98
2018-05-10T01:48:39.081Z,10.00
2018-05-10T01:49:12.940Z,10.48
2018-05-10T01:49:46.913Z,10.20
2018-05-10T01:50:20.792Z,10.18
2018-05-10T01:50:54.675Z,11.10
2018-05-10T01:51:28.536Z,10.68
2018-05-10T01:52:02.414Z,10.85
2018-05-10T01:52:36.304Z,11.20
2018-05-10T01:53:10.283Z,12.05
2018-05-10T01:53:44.145Z,10.63
2018-05-10T01:54:18.007Z,9.95
2018-05-10T01:54:51.936Z,11.00
2018-05-10T01:55:25.798Z,10.00
2018-05-10T01:55:59.657Z,11.10
2018-05-10T01:56:33.510Z,11.25
2018-05-10T01:57:07.379Z,11.20
2018-05-10T01:57:41.258Z,10.02
2018-05-10T01:58:15.196Z,9.90
2018-05-10T01:58:49.066Z,10.07
2018-05-10T01:59:22.947Z,9.52
2018-05-10T01:59:56.796Z,9.25
2018-05-10T02:00:30.667Z,9.80
2018-05-10T02:01:04.521Z,9.57
2018-05-10T02:01:38.399Z,10.05
2018-05-10T02:02:12.570Z,10.10
2018-05-10T02:02:46.435Z,10.55
2018-05-10T02:03:20.310Z,11.10
2018-05-10T02:03:54.261Z,11.05
2018-05-10T02:04:28.134Z,10.55
2018-05-10T02:05:01.996Z,11.40
2018-05-10T02:05:35.872Z,10.63
2018-05-10T02:06:09.742Z,10.10
2018-05-10T02:06:43.616Z,9.48
2018-05-10T02:07:17.485Z,10.15
2018-05-10T02:07:51.366Z,9.77
2018-05-10T02:08:25.254Z,9.35
2018-05-10T02:08:59.121Z,10.35
2018-05-10T02:09:33.021Z,10.10
2018-05-10T02:10:06.886Z,10.20
2018-05-10T02:10:40.751Z,10.55
2018-05-10T02:11:14.688Z,9.95
2018-05-10T02:11:48.551Z,10.48
2018-05-10T02:12:22.623Z,10.38
2018-05-10T02:12:56.498Z,9.75
2018-05-10T02:13:30.380Z,11.60
2018-05-10T02:14:04.254Z,10.45
2018-05-10T02:14:38.156Z,10.95
2018-05-10T02:15:12.032Z,10.60
2018-05-10T02:15:45.925Z,9.60
2018-05-10T02:16:19.935Z,10.85
2018-05-10T02:16:53.868Z,10.63
2018-05-10T02:17:27.741Z,9.65
2018-05-10T02:18:01.607Z,10.32
2018-05-10T02:18:35.849Z,10.25
2018-05-10T02:19:09.735Z,10.63
2018-05-10T02:19:43.579Z,10.20
2018-05-10T02:20:17.455Z,10.43
2018-05-10T02:20:51.322Z,9.65
2018-05-10T02:21:25.192Z,10.82
2018-05-10T02:21:59.070Z,9.48
2018-05-10T02:22:32.931Z,9.63
2018-05-10T02:23:06.810Z,11.02
2018-05-10T02:23:40.709Z,9.43
2018-05-10T02:24:14.851Z,9.90
2018-05-10T02:24:48.711Z,10.77
2018-05-10T02:25:22.596Z,9.43
2018-05-10T02:25:56.458Z,10.20
2018-05-10T02:26:30.338Z,10.95
2018-05-10T02:27:04.194Z,9.48
2018-05-10T02:27:38.047Z,10.07
2018-05-10T02:28:11.919Z,9.48
2018-05-10T02:28:45.810Z,10.63
2018-05-10T02:29:19.815Z,9.85
2018-05-10T02:29:53.663Z,10.23
2018-05-10T02:30:27.637Z,9.25
2018-05-10T02:31:01.504Z,9.30
2018-05-10T02:31:35.397Z,10.32
2018-05-10T02:32:09.288Z,9.35
2018-05-10T02:32:43.222Z,10.15
2018-05-10T02:33:17.236Z,10.77
2018-05-10T02:33:51.228Z,9.85
2018-05-10T02:34:25.130Z,10.05
2018-05-10T02:34:58.990Z,10.60
2018-05-10T02:35:32.859Z,10.10
2018-05-10T02:36:06.712Z,9.45
2018-05-10T02:36:40.589Z,10.43
2018-05-10T02:37:14.468Z,9.65
2018-05-10T02:37:48.334Z,11.07
2018-05-10T02:38:22.288Z,9.60
2018-05-10T02:38:56.185Z,9.35
2018-05-10T02:39:30.064Z,11.12
2018-05-10T02:40:03.935Z,10.00
2018-05-10T02:40:37.804Z,10.40
2018-05-10T02:41:11.681Z,10.40
2018-05-10T02:41:45.562Z,9.60
2018-05-10T02:42:19.453Z,10.20
2018-05-10T02:42:53.349Z,10.27
2018-05-10T02:43:27.355Z,10.00
2018-05-10T02:44:01.260Z,10.32
2018-05-10T02:44:35.133Z,9.88
2018-05-10T02:45:09.019Z,9.80
2018-05-10T02:45:42.897Z,10.05
2018-05-10T02:46:17.021Z,8.68
2018-05-10T02:46:50.899Z,9.82
2018-05-10T02:47:24.769Z,9.25
2018-05-10T02:47:58.640Z,9.77
2018-05-10T02:48:32.814Z,9.70
2018-05-10T02:49:06.715Z,9.73
2018-05-10T02:49:40.596Z,10.20
2018-05-10T02:50:14.488Z,10.38
2018-05-10T02:50:48.390Z,10.50
2018-05-10T02:51:22.520Z,10.82
2018-05-10T02:51:56.502Z,9.85
2018-05-10T02:52:40.317Z,10.25
2018-05-10T02:53:25.899Z,11.50
2018-05-10T02:53:59.788Z,10.57
2018-05-10T02:54:33.664Z,10.40
2018-05-10T02:55:07.524Z,9.10
2018-05-10T02:55:41.505Z,10.90
2018-05-10T02:56:30.890Z,9.55
2018-05-10T02:57:19.471Z,9.52
2018-05-10T02:57:53.565Z,10.57
2018-05-10T02:58:27.659Z,10.30
2018-05-10T02:59:01.569Z,9.70
2018-05-10T02:59:35.578Z,9.80
2018-05-10T03:00:09.550Z,9.55
2018-05-10T03:00:43.451Z,10.50
2018-05-10T03:01:17.366Z,9.35
2018-05-10T03:01:51.226Z,9.65
2018-05-10T03:02:25.104Z,10.57
2018-05-10T03:02:58.981Z,10.63
2018-05-10T03:03:32.847Z,10.02
2018-05-10T03:04:06.718Z,10.20
2018-05-10T03:04:40.599Z,10.07
2018-05-10T03:05:14.496Z,9.80
2018-05-10T03:05:48.348Z,9.65
2018-05-10T03:06:22.219Z,10.00
2018-05-10T03:06:56.091Z,9.70
2018-05-10T03:07:29.978Z,10.18
2018-05-10T03:08:03.840Z,10.07
2018-05-10T03:08:37.720Z,9.52
2018-05-10T03:09:11.583Z,9.52
2018-05-10T03:09:45.668Z,10.25
2018-05-10T03:10:19.631Z,9.43
2018-05-10T03:10:53.497Z,10.10
2018-05-10T03:11:27.357Z,10.45
2018-05-10T03:12:01.229Z,9.65
2018-05-10T03:12:35.089Z,9.77
2018-05-10T03:13:08.956Z,10.40
2018-05-10T03:13:42.847Z,9.68
2018-05-10T03:14:16.737Z,10.07
2018-05-10T03:14:50.637Z,9.90
2018-05-10T03:15:24.508Z,10.70
2018-05-10T03:15:58.428Z,11.70
2018-05-10T03:16:32.299Z,9.65
2018-05-10T03:17:06.170Z,10.50
2018-05-10T03:17:40.031Z,10.45
2018-05-10T03:18:13.904Z,10.02
2018-05-10T03:18:47.793Z,12.00
2018-05-10T03:19:21.647Z,9.80
2018-05-10T03:19:55.605Z,9.75
2018-05-10T03:20:29.462Z,10.00
2018-05-10T03:21:03.331Z,10.65
2018-05-10T03:21:37.191Z,10.00
2018-05-10T03:22:11.043Z,9.75
2018-05-10T03:22:44.913Z,9.38
2018-05-10T03:23:18.967Z,10.43
2018-05-10T03:23:52.956Z,10.00
2018-05-10T03:24:26.851Z,10.30
2018-05-10T03:25:00.864Z,10.40
2018-05-10T03:25:34.840Z,9.90
2018-05-10T03:26:08.732Z,10.23
2018-05-10T03:26:42.609Z,11.25
2018-05-10T03:27:16.524Z,11.00
2018-05-10T03:27:50.439Z,10.57
2018-05-10T03:28:24.307Z,10.98
2018-05-10T03:28:58.168Z,10.95
2018-05-10T03:29:32.061Z,11.15
2018-05-10T03:30:05.951Z,10.88
2018-05-10T03:30:39.839Z,11.38
2018-05-10T03:31:13.703Z,11.73
2018-05-10T03:31:47.588Z,10.15
2018-05-10T03:32:21.453Z,10.77
2018-05-10T03:32:55.324Z,10.45
2018-05-10T03:33:29.198Z,9.98
2018-05-10T03:34:03.179Z,10.82
2018-05-10T03:34:37.060Z,10.60
2018-05-10T03:35:10.973Z,11.48
2018-05-10T03:35:45.069Z,11.68
2018-05-10T03:36:18.937Z,10.60
2018-05-10T03:36:52.796Z,11.05
2018-05-10T03:37:26.659Z,10.45
2018-05-10T03:38:00.545Z,10.18
2018-05-10T03:38:34.402Z,10.60
2018-05-10T03:39:08.272Z,10.43
2018-05-10T03:39:42.151Z,10.98
2018-05-10T03:40:16.105Z,10.52
2018-05-10T03:40:49.975Z,11.57
2018-05-10T03:41:24.238Z,10.43
2018-05-10T03:41:58.215Z,11.60
2018-05-10T03:42:32.314Z,10.60
2018-05-10T03:43:06.163Z,9.98
2018-05-10T03:43:40.113Z,10.18
2018-05-10T03:44:14.049Z,11.45
2018-05-10T03:44:47.954Z,11.38
2018-05-10T03:45:22.059Z,10.32
2018-05-10T03:45:55.923Z,11.52
2018-05-10T03:46:29.815Z,10.95
2018-05-10T03:47:03.692Z,11.20
2018-05-10T03:47:37.558Z,11.00
2018-05-10T03:48:11.471Z,12.10
2018-05-10T03:48:45.574Z,10.82
2018-05-10T03:49:19.452Z,10.80
2018-05-10T03:49:53.311Z,10.85
2018-05-10T03:50:27.183Z,11.12
2018-05-10T03:51:01.122Z,11.75
2018-05-10T03:51:35.256Z,12.20
2018-05-10T03:52:09.130Z,10.35
2018-05-10T03:52:43.006Z,10.60
2018-05-10T03:53:17.393Z,11.30
2018-05-10T03:53:51.269Z,10.85
2018-05-10T03:54:25.158Z,10.95
2018-05-10T03:54:59.050Z,10.68
2018-05-10T03:55:33.243Z,10.50
2018-05-10T03:56:07.120Z,11.25
2018-05-10T03:56:40.973Z,9.85
2018-05-10T03:57:14.891Z,11.10
2018-05-10T03:57:48.781Z,10.68
2018-05-10T03:58:22.941Z,11.05
2018-05-10T03:58:57.000Z,9.80
2018-05-10T03:59:30.861Z,10.90
2018-05-10T04:00:04.990Z,10.15
2018-05-10T04:00:38.863Z,10.90
2018-05-10T04:01:12.721Z,11.25
2018-05-10T04:01:46.594Z,10.20
2018-05-10T04:02:26.319Z,11.38
2018-05-10T04:03:15.283Z,10.55
2018-05-10T04:03:54.923Z,11.12
2018-05-10T04:04:34.602Z,11.23
2018-05-10T04:05:14.226Z,11.30
2018-05-10T04:05:54.120Z,11.10
2018-05-10T04:06:33.833Z,11.15
2018-05-10T04:07:13.423Z,11.25
2018-05-10T04:07:53.099Z,10.75
2018-05-10T04:08:32.881Z,10.85
2018-05-10T04:09:12.714Z,11.27
2018-05-10T04:09:52.318Z,11.75
2018-05-10T04:10:31.992Z,10.80
2018-05-10T04:11:26.654Z,10.75
2018-05-10T04:12:00.603Z,11.18
2018-05-10T04:12:34.609Z,11.35
2018-05-10T04:13:08.497Z,11.55
2018-05-10T04:13:42.732Z,11.75
2018-05-10T04:14:16.599Z,10.23
2018-05-10T04:14:51.358Z,10.93
2018-05-10T04:15:25.317Z,10.60
2018-05-10T04:15:59.312Z,10.57
2018-05-10T04:16:33.253Z,11.30
2018-05-10T04:17:07.109Z,10.93
2018-05-10T04:17:40.979Z,11.50
2018-05-10T04:18:14.988Z,11.48
2018-05-10T04:18:50.692Z,11.40
2018-05-10T04:19:24.783Z,10.77
2018-05-10T04:19:58.645Z,11.70
2018-05-10T04:20:32.584Z,11.20
2018-05-10T04:21:06.467Z,11.48
2018-05-10T04:21:40.352Z,12.27
2018-05-10T04:22:14.519Z,11.40
2018-05-10T04:22:48.396Z,11.25
2018-05-10T04:23:22.267Z,11.10
2018-05-10T04:23:56.128Z,11.40
2018-05-10T04:24:30.017Z,10.95
2018-05-10T04:25:03.982Z,12.20
2018-05-10T04:25:37.887Z,11.82
2018-05-10T04:26:11.777Z,11.05
2018-05-10T04:26:45.649Z,12.05
2018-05-10T04:27:19.524Z,11.80
2018-05-10T04:27:53.774Z,10.32
2018-05-10T04:28:27.660Z,11.80
2018-05-10T04:29:01.533Z,11.88
2018-05-10T04:29:35.412Z,11.70
2018-05-10T04:30:09.287Z,11.07
2018-05-10T04:30:43.148Z,11.20
2018-05-10T04:31:17.163Z,11.52
2018-05-10T04:31:51.150Z,11.38
2018-05-10T04:32:25.021Z,11.60
2018-05-10T04:32:58.886Z,11.05
2018-05-10T04:33:33.000Z,11.48
2018-05-10T04:34:06.874Z,11.82
2018-05-10T04:34:40.738Z,10.95
2018-05-10T04:35:14.605Z,11.82
2018-05-10T04:35:48.489Z,10.38
2018-05-10T04:36:22.376Z,11.98
2018-05-10T04:36:56.258Z,11.23
2018-05-10T04:37:30.228Z,10.85
2018-05-10T04:38:04.068Z,11.57
2018-05-10T04:38:37.948Z,12.45
2018-05-10T04:39:11.826Z,13.13
2018-05-10T04:39:45.745Z,12.15
2018-05-10T04:40:20.362Z,12.85
2018-05-10T04:40:54.435Z,12.37
2018-05-10T04:41:28.308Z,11.77
2018-05-10T04:42:02.191Z,12.02
2018-05-10T04:42:36.073Z,11.60
2018-05-10T04:43:09.943Z,11.90
2018-05-10T04:43:43.965Z,11.57
2018-05-10T04:44:17.972Z,11.35
2018-05-10T04:44:51.828Z,11.43
2018-05-10T04:45:25.706Z,11.82
2018-05-10T04:45:59.568Z,11.23
2018-05-10T04:46:33.553Z,12.05
2018-05-10T04:47:08.222Z,11.27
2018-05-10T04:47:42.151Z,12.18
2018-05-10T04:48:16.036Z,11.10
2018-05-10T04:48:50.253Z,11.50
2018-05-10T04:49:24.112Z,11.25
2018-05-10T04:49:58.209Z,12.60
2018-05-10T04:50:32.037Z,12.05
2018-05-10T04:51:05.899Z,11.45
2018-05-10T04:51:39.800Z,12.57
2018-05-10T04:52:13.693Z,11.12
2018-05-10T04:52:47.563Z,11.95
2018-05-10T04:53:21.439Z,12.27
2018-05-10T04:53:55.414Z,11.35
2018-05-10T04:54:29.415Z,12.93
2018-05-10T04:55:03.412Z,11.48
2018-05-10T04:55:37.306Z,11.77
2018-05-10T04:56:11.174Z,11.77
2018-05-10T04:56:45.194Z,11.60
2018-05-10T04:57:19.072Z,11.23
2018-05-10T04:57:52.939Z,12.13
2018-05-10T04:58:26.986Z,11.85
2018-05-10T04:59:00.856Z,11.43
2018-05-10T04:59:34.727Z,11.50
2018-05-10T05:00:08.669Z,12.37
2018-05-10T05:00:42.525Z,12.25
2018-05-10T05:01:16.416Z,11.40
2018-05-10T05:01:50.307Z,13.30
2018-05-10T05:02:24.372Z,12.68
2018-05-10T05:02:58.246Z,12.90
2018-05-10T05:03:32.285Z,13.38
2018-05-10T05:04:06.091Z,12.35
2018-05-10T05:04:39.978Z,12.25
2018-05-10T05:05:13.843Z,12.30
2018-05-10T05:05:47.712Z,12.05
2018-05-10T05:06:21.571Z,12.07
2018-05-10T05:06:55.436Z,11.43
2018-05-10T05:07:29.319Z,12.10
2018-05-10T05:08:03.191Z,12.05
2018-05-10T05:08:37.052Z,12.70
2018-05-10T05:09:10.906Z,11.10
2018-05-10T05:09:44.788Z,12.20
2018-05-10T05:10:18.647Z,10.80
2018-05-10T05:10:52.525Z,12.65
2018-05-10T05:11:26.404Z,12.68
2018-05-10T05:12:00.374Z,12.32
2018-05-10T05:12:34.228Z,11.20
2018-05-10T05:13:08.177Z,12.50
2018-05-10T05:13:42.173Z,12.45
2018-05-10T05:14:16.054Z,12.27
2018-05-10T05:14:49.951Z,13.27
2018-05-10T05:15:23.851Z,12.00
2018-05-10T05:15:57.757Z,11.82
2018-05-10T05:16:31.682Z,12.70
2018-05-10T05:17:05.560Z,12.35
2018-05-10T05:17:39.610Z,12.07
2018-05-10T05:18:13.499Z,12.85
2018-05-10T05:18:47.373Z,11.38
2018-05-10T05:19:21.243Z,12.18
2018-05-10T05:19:55.216Z,12.05
2018-05-10T05:20:29.481Z,11.60
2018-05-10T05:21:03.339Z,11.98
2018-05-10T05:21:37.579Z,12.40
2018-05-10T05:22:11.416Z,11.50
2018-05-10T05:22:45.705Z,11.27
2018-05-10T05:23:19.883Z,11.85
2018-05-10T05:23:53.759Z,11.75
2018-05-10T05:24:27.642Z,13.00
2018-05-10T05:25:01.520Z,12.27
2018-05-10T05:25:35.616Z,12.00
2018-05-10T05:26:09.520Z,12.00
2018-05-10T05:26:43.386Z,12.65
2018-05-10T05:27:17.280Z,12.40
2018-05-10T05:27:51.380Z,11.93
2018-05-10T05:28:25.253Z,13.00
2018-05-10T05:28:59.129Z,12.37
2018-05-10T05:29:33.032Z,12.25
2018-05-10T05:30:06.907Z,11.48
2018-05-10T05:30:40.781Z,11.20
2018-05-10T05:31:14.653Z,12.25
2018-05-10T05:31:48.540Z,13.23
2018-05-10T05:32:22.665Z,13.15
2018-05-10T05:32:56.565Z,12.73
2018-05-10T05:33:30.543Z,12.73
2018-05-10T05:34:04.417Z,12.23
2018-05-10T05:34:38.313Z,11.77
2018-05-10T05:35:12.180Z,11.60
2018-05-10T05:35:46.057Z,11.48
2018-05-10T05:36:20.012Z,12.10
2018-05-10T05:36:54.021Z,12.50
2018-05-10T05:37:27.892Z,11.77
2018-05-10T05:38:01.763Z,12.15
2018-05-10T05:38:35.636Z,12.23
2018-05-10T05:39:09.513Z,11.63
2018-05-10T05:39:43.383Z,11.85
2018-05-10T05:40:17.247Z,10.55
2018-05-10T05:40:51.275Z,12.37
2018-05-10T05:41:25.178Z,11.65
2018-05-10T05:41:59.044Z,12.23
2018-05-10T05:42:32.943Z,12.13
2018-05-10T05:43:06.839Z,11.57
2018-05-10T05:43:40.732Z,12.95
2018-05-10T05:44:14.760Z,11.52
2018-05-10T05:44:48.628Z,11.85
2018-05-10T05:45:22.499Z,12.15
2018-05-10T05:45:56.546Z,11.65
2018-05-10T05:46:30.452Z,11.27
2018-05-10T05:47:04.336Z,11.20
2018-05-10T05:47:38.214Z,11.68
2018-05-10T05:48:12.096Z,11.10
2018-05-10T05:48:45.971Z,10.65
2018-05-10T05:49:19.957Z,10.77
2018-05-10T05:49:53.821Z,11.68
2018-05-10T05:50:27.683Z,11.25
2018-05-10T05:51:01.550Z,10.55
2018-05-10T05:51:35.616Z,11.48
2018-05-10T05:52:09.493Z,10.63
2018-05-10T05:52:43.356Z,11.80
2018-05-10T05:53:17.235Z,11.25
2018-05-10T05:53:51.119Z,10.18
2018-05-10T05:54:24.983Z,10.90
2018-05-10T05:54:58.901Z,10.70
2018-05-10T05:55:32.795Z,10.80
2018-05-10T05:56:06.663Z,10.32
2018-05-10T05:56:40.651Z,11.15
2018-05-10T05:57:14.509Z,10.35
2018-05-10T05:57:48.377Z,10.70
2018-05-10T05:58:22.252Z,11.00
2018-05-10T05:58:56.253Z,10.90
2018-05-10T05:59:30.129Z,11.15
2018-05-10T06:00:03.983Z,10.30
2018-05-10T06:00:37.865Z,10.75
2018-05-10T06:01:11.729Z,11.38
2018-05-10T06:01:45.607Z,11.80
2018-05-10T06:02:19.517Z,11.02
2018-05-10T06:02:53.379Z,12.32
2018-05-10T06:03:27.269Z,11.27
2018-05-10T06:04:01.134Z,10.50
2018-05-10T06:04:34.996Z,10.75
2018-05-10T06:05:08.866Z,10.32
2018-05-10T06:05:42.740Z,10.90
2018-05-10T06:06:16.616Z,10.80
2018-05-10T06:06:50.465Z,11.15
2018-05-10T06:07:24.339Z,10.18
2018-05-10T06:07:58.214Z,11.57
2018-05-10T06:08:32.105Z,11.65
2018-05-10T06:09:06.153Z,11.57
2018-05-10T06:09:40.008Z,11.02
2018-05-10T06:10:13.884Z,10.77
2018-05-10T06:10:47.749Z,11.18
2018-05-10T06:11:21.623Z,10.55
2018-05-10T06:11:55.499Z,10.35
2018-05-10T06:12:29.416Z,11.15
2018-05-10T06:13:03.453Z,11.07
2018-05-10T06:13:37.408Z,10.65
2018-05-10T06:14:13.107Z,11.32
2018-05-10T06:14:48.194Z,11.85
2018-05-10T06:15:22.102Z,10.35
2018-05-10T06:15:56.014Z,11.40
2018-05-10T06:16:29.868Z,11.02
2018-05-10T06:17:03.748Z,11.32
2018-05-10T06:17:37.629Z,10.60
2018-05-10T06:18:11.509Z,11.02
2018-05-10T06:18:45.485Z,9.63
2018-05-10T06:19:19.790Z,10.48
2018-05-10T06:19:53.737Z,11.55
2018-05-10T06:20:27.649Z,10.45
2018-05-10T06:21:02.150Z,9.98
2018-05-10T06:21:36.027Z,11.20
2018-05-10T06:22:09.893Z,11.95
2018-05-10T06:22:43.840Z,11.70
2018-05-10T06:23:17.714Z,12.50
2018-05-10T06:23:51.590Z,10.23
2018-05-10T06:24:25.456Z,11.27
2018-05-10T06:24:59.439Z,10.85
2018-05-10T06:25:33.206Z,11.55
2018-05-10T06:26:07.070Z,10.48
2018-05-10T06:26:40.940Z,11.12
2018-05-10T06:27:14.811Z,10.18
2018-05-10T06:27:48.794Z,11.00
2018-05-10T06:28:22.690Z,10.85
2018-05-10T06:28:56.591Z,10.73
2018-05-10T06:29:30.484Z,9.90
2018-05-10T06:30:04.368Z,10.43
2018-05-10T06:30:38.246Z,10.32
2018-05-10T06:31:12.103Z,11.88
2018-05-10T06:31:45.979Z,11.18
2018-05-10T06:32:19.933Z,11.88
2018-05-10T06:32:53.815Z,11.57
2018-05-10T06:33:27.755Z,11.82
2018-05-10T06:34:01.685Z,11.25
2018-05-10T06:34:35.735Z,9.93
2018-05-10T06:35:09.627Z,11.02
2018-05-10T06:35:43.555Z,11.50
2018-05-10T06:36:17.455Z,11.98
2018-05-10T06:36:51.340Z,11.32
2018-05-10T06:37:25.233Z,11.75
2018-05-10T06:37:59.104Z,10.80
2018-05-10T06:38:32.994Z,11.30
2018-05-10T06:39:06.926Z,10.80
2018-05-10T06:39:40.805Z,10.07
2018-05-10T06:40:14.681Z,10.35
2018-05-10T06:40:48.597Z,11.35
2018-05-10T06:41:22.470Z,10.88
2018-05-10T06:41:56.393Z,11.18
2018-05-10T06:42:30.264Z,10.43
2018-05-10T06:43:04.139Z,10.38
2018-05-10T06:43:38.014Z,10.10
2018-05-10T06:44:11.901Z,10.55
2018-05-10T06:44:45.823Z,11.77
2018-05-10T06:45:19.807Z,11.12
2018-05-10T06:45:53.742Z,10.10
2018-05-10T06:46:27.623Z,10.00
2018-05-10T06:47:01.503Z,10.35
2018-05-10T06:47:35.355Z,10.95
2018-05-10T06:48:09.436Z,10.90
2018-05-10T06:48:43.303Z,11.52
2018-05-10T06:49:17.175Z,11.20
2018-05-10T06:49:51.196Z,10.75
2018-05-10T06:50:25.220Z,10.75
2018-05-10T06:50:59.106Z,10.63
2018-05-10T06:51:32.983Z,10.35
2018-05-10T06:52:06.842Z,9.40
2018-05-10T06:52:40.691Z,9.55
2018-05-10T06:53:14.547Z,10.00
2018-05-10T06:53:48.413Z,9.85
2018-05-10T06:54:22.384Z,9.30
2018-05-10T06:54:56.231Z,9.45
2018-05-10T06:55:30.310Z,10.30
2018-05-10T06:56:04.176Z,10.25
2018-05-10T06:56:38.048Z,9.85
2018-05-10T06:57:11.907Z,9.43
2018-05-10T06:57:45.783Z,9.80
2018-05-10T06:58:20.139Z,10.10
2018-05-10T06:58:54.009Z,10.60
2018-05-10T06:59:27.883Z,10.00
2018-05-10T07:00:01.748Z,9.52
2018-05-10T07:00:35.627Z,10.15
2018-05-10T07:01:09.498Z,10.05
2018-05-10T07:01:43.596Z,10.43
2018-05-10T07:02:17.487Z,10.48
2018-05-10T07:02:51.349Z,9.93
2018-05-10T07:03:25.316Z,10.50
2018-05-10T07:03:59.095Z,10.57
2018-05-10T07:04:32.994Z,9.88
2018-05-10T07:05:06.979Z,10.35
2018-05-10T07:05:40.844Z,9.98
2018-05-10T07:06:14.735Z,10.77
2018-05-10T07:06:48.664Z,10.77
2018-05-10T07:07:22.536Z,10.48
2018-05-10T07:07:56.429Z,10.25
2018-05-10T07:08:30.297Z,9.90
2018-05-10T07:09:04.197Z,10.23
2018-05-10T07:09:38.106Z,9.70
2018-05-10T07:10:11.980Z,10.27
2018-05-10T07:10:45.860Z,10.88
2018-05-10T07:11:19.765Z,10.50
2018-05-10T07:11:53.636Z,10.68
2018-05-10T07:12:27.504Z,10.82
2018-05-10T07:13:01.465Z,10.82
2018-05-10T07:13:35.551Z,10.30
2018-05-10T07:14:09.421Z,9.85
2018-05-10T07:14:43.291Z,10.02
2018-05-10T07:15:17.161Z,10.80
2018-05-10T07:15:51.071Z,10.55
2018-05-10T07:16:24.956Z,9.88
2018-05-10T07:16:58.911Z,12.50
2018-05-10T07:17:32.812Z,10.85
2018-05-10T07:18:06.809Z,11.05
2018-05-10T07:18:40.754Z,10.50
2018-05-10T07:19:14.684Z,10.57
2018-05-10T07:19:48.564Z,10.82
2018-05-10T07:20:22.555Z,10.32
2018-05-10T07:21:03.551Z,9.68
2018-05-10T07:21:37.448Z,11.60
2018-05-10T07:22:11.323Z,9.85
2018-05-10T07:22:45.236Z,9.60